sensor_id;sensor_type;location;lat;lon;timestamp;pressure;altitude;pressure_sealevel;temperature;humidity
3464;BME280;3551;41.578;24.706;2023-03-11T01:46:20;89559.34;;;9.01;100.00
3464;BME280;3551;41.578;24.706;2023-03-11T01:52:42;89553.66;;;8.70;100.00
3464;BME280;3551;41.578;24.706;2023-03-11T01:55:46;89547.09;;;9.03;100.00
3464;BME280;3551;41.578;24.706;2023-03-11T01:58:30;89551.38;;;9.14;100.00
3464;BME280;3551;41.578;24.706;2023-03-11T02:33:26;89508.06;;;9.51;100.00
3464;BME280;3551;41.578;24.706;2023-03-11T02:36:31;89506.47;;;9.53;100.00
3464;BME280;3551;41.578;24.706;2023-03-11T02:42:29;89500.91;;;9.60;100.00
3464;BME280;3551;41.578;24.706;2023-03-11T02:45:46;89505.31;;;9.92;100.00
3464;BME280;3551;41.578;24.706;2023-03-11T03:04:45;89533.06;;;9.70;100.00
3464;BME280;3551;41.578;24.706;2023-03-11T03:07:33;89548.09;;;9.63;100.00
3464;BME280;3551;41.578;24.706;2023-03-11T03:10:26;89552.72;;;9.63;100.00
3464;BME280;3551;41.578;24.706;2023-03-11T03:13:04;89557.56;;;9.52;100.00
3464;BME280;3551;41.578;24.706;2023-03-11T03:15:53;89562.91;;;9.52;100.00
3464;BME280;3551;41.578;24.706;2023-03-11T03:18:40;89555.97;;;9.54;100.00
3464;BME280;3551;41.578;24.706;2023-03-11T03:21:13;89549.06;;;9.70;100.00
3464;BME280;3551;41.578;24.706;2023-03-11T03:24:26;89551.56;;;9.89;100.00
3464;BME280;3551;41.578;24.706;2023-03-11T03:27:17;89547.06;;;9.99;100.00
3464;BME280;3551;41.578;24.706;2023-03-11T03:30:16;89542.91;;;9.85;100.00
3464;BME280;3551;41.578;24.706;2023-03-11T03:33:09;89530.53;;;9.91;100.00
3464;BME280;3551;41.578;24.706;2023-03-11T03:36:14;89523.25;;;9.92;100.00
3464;BME280;3551;41.578;24.706;2023-03-11T03:48:08;89516.56;;;9.46;100.00
3464;BME280;3551;41.578;24.706;2023-03-11T03:51:15;89515.25;;;9.25;100.00
3464;BME280;3551;41.578;24.706;2023-03-11T03:54:12;89511.50;;;9.23;100.00
3464;BME280;3551;41.578;24.706;2023-03-11T03:56:55;89515.41;;;8.93;100.00
3464;BME280;3551;41.578;24.706;2023-03-11T04:14:54;89506.31;;;9.32;100.00
3464;BME280;3551;41.578;24.706;2023-03-11T04:18:02;89507.38;;;9.22;100.00
3464;BME280;3551;41.578;24.706;2023-03-11T04:20:53;89504.00;;;9.05;100.00
3464;BME280;3551;41.578;24.706;2023-03-11T04:26:51;89513.97;;;8.60;100.00
3464;BME280;3551;41.578;24.706;2023-03-11T04:29:38;89531.63;;;8.54;100.00
3464;BME280;3551;41.578;24.706;2023-03-11T04:42:13;89509.94;;;8.96;100.00
3464;BME280;3551;41.578;24.706;2023-03-11T04:45:25;89510.97;;;9.15;100.00
3464;BME280;3551;41.578;24.706;2023-03-11T04:48:10;89516.00;;;9.13;100.00
3464;BME280;3551;41.578;24.706;2023-03-11T04:51:10;89512.25;;;9.11;100.00
3464;BME280;3551;41.578;24.706;2023-03-11T04:54:19;89500.53;;;9.21;100.00
3464;BME280;3551;41.578;24.706;2023-03-11T05:00:26;89500.47;;;8.67;100.00
3464;BME280;3551;41.578;24.706;2023-03-11T05:03:00;89500.41;;;8.83;100.00
3464;BME280;3551;41.578;24.706;2023-03-11T05:05:45;89505.81;;;8.67;100.00
3464;BME280;3551;41.578;24.706;2023-03-11T05:08:45;89505.31;;;8.84;100.00
3464;BME280;3551;41.578;24.706;2023-03-11T05:11:44;89504.16;;;8.85;100.00
3464;BME280;3551;41.578;24.706;2023-03-11T05:14:27;89504.38;;;8.91;100.00
3464;BME280;3551;41.578;24.706;2023-03-11T06:01:51;89468.75;;;8.85;100.00
3464;BME280;3551;41.578;24.706;2023-03-11T06:10:59;89449.00;;;9.24;100.00
3464;BME280;3551;41.578;24.706;2023-03-11T06:13:45;89446.88;;;9.31;100.00
3464;BME280;3551;41.578;24.706;2023-03-11T06:16:41;89451.72;;;9.36;100.00
3464;BME280;3551;41.578;24.706;2023-03-11T06:22:38;89446.03;;;9.47;100.00
3464;BME280;3551;41.578;24.706;2023-03-11T06:25:55;89446.47;;;9.33;100.00
3464;BME280;3551;41.578;24.706;2023-03-11T06:28:38;89448.13;;;9.14;100.00
3464;BME280;3551;41.578;24.706;2023-03-11T06:31:27;89448.50;;;9.41;100.00
3464;BME280;3551;41.578;24.706;2023-03-11T06:41:36;89435.00;;;10.67;100.00
3464;BME280;3551;41.578;24.706;2023-03-11T06:44:41;89423.13;;;10.90;100.00
3464;BME280;3551;41.578;24.706;2023-03-11T06:47:28;89428.09;;;11.01;100.00
3464;BME280;3551;41.578;24.706;2023-03-11T06:50:42;89431.03;;;11.46;100.00
3464;BME280;3551;41.578;24.706;2023-03-11T06:53:14;89416.19;;;11.76;100.00
3464;BME280;3551;41.578;24.706;2023-03-11T07:13:48;89398.78;;;11.19;100.00
3464;BME280;3551;41.578;24.706;2023-03-11T07:20:32;89405.44;;;10.93;100.00
3464;BME280;3551;41.578;24.706;2023-03-11T07:23:19;89401.53;;;10.63;100.00
3464;BME280;3551;41.578;24.706;2023-03-11T07:25:54;89398.25;;;10.81;100.00
3464;BME280;3551;41.578;24.706;2023-03-11T07:29:09;89410.16;;;11.10;100.00
3464;BME280;3551;41.578;24.706;2023-03-11T07:32:09;89411.66;;;11.11;100.00
3464;BME280;3551;41.578;24.706;2023-03-11T07:35:09;89416.72;;;10.88;100.00
3464;BME280;3551;41.578;24.706;2023-03-11T07:37:48;89414.22;;;10.71;100.00
3464;BME280;3551;41.578;24.706;2023-03-11T07:40:56;89417.25;;;10.61;100.00
3464;BME280;3551;41.578;24.706;2023-03-11T07:43:44;89412.44;;;10.34;100.00
3464;BME280;3551;41.578;24.706;2023-03-11T07:49:22;89422.38;;;10.68;100.00
3464;BME280;3551;41.578;24.706;2023-03-11T07:51:49;89412.09;;;10.45;100.00
3464;BME280;3551;41.578;24.706;2023-03-11T07:54:16;89414.09;;;10.75;100.00
3464;BME280;3551;41.578;24.706;2023-03-11T07:56:42;89416.66;;;10.79;100.00
3464;BME280;3551;41.578;24.706;2023-03-11T07:59:09;89417.63;;;10.72;100.00
3464;BME280;3551;41.578;24.706;2023-03-11T08:01:35;89418.28;;;10.76;100.00
3464;BME280;3551;41.578;24.706;2023-03-11T08:04:08;89421.63;;;10.89;100.00
3464;BME280;3551;41.578;24.706;2023-03-11T08:06:37;89427.09;;;11.07;100.00
3464;BME280;3551;41.578;24.706;2023-03-11T08:09:04;89427.09;;;11.07;100.00
3464;BME280;3551;41.578;24.706;2023-03-11T08:11:31;89419.13;;;10.95;100.00
3464;BME280;3551;41.578;24.706;2023-03-11T08:13:58;89412.34;;;10.81;100.00
3464;BME280;3551;41.578;24.706;2023-03-11T08:16:25;89414.03;;;10.88;100.00
3464;BME280;3551;41.578;24.706;2023-03-11T08:18:52;89416.72;;;10.88;100.00
3464;BME280;3551;41.578;24.706;2023-03-11T08:21:20;89418.44;;;11.03;100.00
3464;BME280;3551;41.578;24.706;2023-03-11T08:23:49;89414.94;;;11.15;100.00
3464;BME280;3551;41.578;24.706;2023-03-11T08:26:17;89425.41;;;11.01;100.00
3464;BME280;3551;41.578;24.706;2023-03-11T08:28:44;89420.81;;;11.01;100.00
3464;BME280;3551;41.578;24.706;2023-03-11T08:31:11;89425.28;;;11.04;100.00
3464;BME280;3551;41.578;24.706;2023-03-11T08:33:38;89420.19;;;11.19;100.00
3464;BME280;3551;41.578;24.706;2023-03-11T08:36:04;89420.47;;;11.21;100.00
3464;BME280;3551;41.578;24.706;2023-03-11T08:38:31;89417.66;;;11.46;100.00
3464;BME280;3551;41.578;24.706;2023-03-11T08:40:59;89422.31;;;11.55;100.00
3464;BME280;3551;41.578;24.706;2023-03-11T08:43:26;89426.50;;;11.65;100.00
3464;BME280;3551;41.578;24.706;2023-03-11T08:45:53;89425.63;;;11.68;100.00
3464;BME280;3551;41.578;24.706;2023-03-11T08:48:19;89424.22;;;11.76;100.00
3464;BME280;3551;41.578;24.706;2023-03-11T08:50:47;89425.56;;;11.80;100.00
3464;BME280;3551;41.578;24.706;2023-03-11T08:53:14;89427.25;;;11.96;100.00
3464;BME280;3551;41.578;24.706;2023-03-11T08:55:41;89421.44;;;11.58;100.00
3464;BME280;3551;41.578;24.706;2023-03-11T08:58:09;89422.13;;;11.80;100.00
3464;BME280;3551;41.578;24.706;2023-03-11T09:00:36;89404.94;;;11.99;100.00
3464;BME280;3551;41.578;24.706;2023-03-11T09:03:02;89401.41;;;12.20;100.00
3464;BME280;3551;41.578;24.706;2023-03-11T09:05:29;89397.56;;;12.30;100.00
3464;BME280;3551;41.578;24.706;2023-03-11T09:07:56;89401.59;;;12.44;100.00
3464;BME280;3551;41.578;24.706;2023-03-11T09:10:23;89399.22;;;12.73;95.08
3464;BME280;3551;41.578;24.706;2023-03-11T09:12:49;89393.56;;;12.71;99.89
3464;BME280;3551;41.578;24.706;2023-03-11T09:15:18;89397.72;;;12.54;100.00
3464;BME280;3551;41.578;24.706;2023-03-11T09:17:44;89391.19;;;12.46;98.43
3464;BME280;3551;41.578;24.706;2023-03-11T09:20:11;89384.91;;;12.31;98.60
3464;BME280;3551;41.578;24.706;2023-03-11T09:22:38;89382.38;;;12.36;94.70
3464;BME280;3551;41.578;24.706;2023-03-11T09:25:05;89383.19;;;11.97;93.19
3464;BME280;3551;41.578;24.706;2023-03-11T09:27:32;89388.91;;;12.35;92.78
3464;BME280;3551;41.578;24.706;2023-03-11T09:29:59;89390.88;;;12.62;97.74
3464;BME280;3551;41.578;24.706;2023-03-11T09:32:27;89385.50;;;12.71;97.42
3464;BME280;3551;41.578;24.706;2023-03-11T09:34:53;89382.22;;;12.76;97.16
3464;BME280;3551;41.578;24.706;2023-03-11T09:37:21;89383.13;;;12.82;100.00
3464;BME280;3551;41.578;24.706;2023-03-11T09:39:48;89387.88;;;12.87;100.00
3464;BME280;3551;41.578;24.706;2023-03-11T09:42:17;89385.81;;;13.10;100.00
3464;BME280;3551;41.578;24.706;2023-03-11T09:44:46;89381.16;;;13.19;100.00
3464;BME280;3551;41.578;24.706;2023-03-11T09:47:28;89382.91;;;13.31;97.16
3464;BME280;3551;41.578;24.706;2023-03-11T09:50:10;89380.81;;;13.44;95.54
3464;BME280;3551;41.578;24.706;2023-03-11T09:52:42;89378.09;;;13.53;96.06
3464;BME280;3551;41.578;24.706;2023-03-11T09:55:20;89379.03;;;13.41;92.67
3464;BME280;3551;41.578;24.706;2023-03-11T09:57:49;89374.16;;;13.31;93.14
3464;BME280;3551;41.578;24.706;2023-03-11T10:00:18;89371.50;;;13.13;93.14
3464;BME280;3551;41.578;24.706;2023-03-11T10:02:47;89366.53;;;13.20;99.16
3464;BME280;3551;41.578;24.706;2023-03-11T10:05:15;89364.09;;;13.40;96.10
3464;BME280;3551;41.578;24.706;2023-03-11T10:07:46;89368.41;;;13.47;97.37
3464;BME280;3551;41.578;24.706;2023-03-11T10:10:17;89371.81;;;13.57;98.14
3464;BME280;3551;41.578;24.706;2023-03-11T10:12:45;89365.53;;;13.60;96.98
3464;BME280;3551;41.578;24.706;2023-03-11T10:15:16;89369.41;;;13.59;96.47
3464;BME280;3551;41.578;24.706;2023-03-11T10:17:55;89369.44;;;13.49;96.08
3464;BME280;3551;41.578;24.706;2023-03-11T10:20:25;89361.31;;;13.26;97.78
3464;BME280;3551;41.578;24.706;2023-03-11T10:22:55;89367.91;;;13.25;96.56
3464;BME280;3551;41.578;24.706;2023-03-11T10:25:26;89358.16;;;13.36;90.57
3464;BME280;3551;41.578;24.706;2023-03-11T10:27:54;89359.31;;;13.44;89.93
3464;BME280;3551;41.578;24.706;2023-03-11T10:30:24;89350.63;;;13.59;81.54
3464;BME280;3551;41.578;24.706;2023-03-11T10:32:55;89344.22;;;13.56;79.51
3464;BME280;3551;41.578;24.706;2023-03-11T10:35:25;89344.88;;;13.75;64.09
3464;BME280;3551;41.578;24.706;2023-03-11T10:37:55;89344.03;;;13.92;66.75
3464;BME280;3551;41.578;24.706;2023-03-11T10:40:28;89341.41;;;14.07;66.18
3464;BME280;3551;41.578;24.706;2023-03-11T10:42:56;89329.69;;;14.19;65.23
3464;BME280;3551;41.578;24.706;2023-03-11T10:45:24;89343.44;;;14.21;61.88
3464;BME280;3551;41.578;24.706;2023-03-11T10:47:52;89347.28;;;14.29;61.50
3464;BME280;3551;41.578;24.706;2023-03-11T10:50:23;89337.72;;;14.28;62.07
3464;BME280;3551;41.578;24.706;2023-03-11T10:53:06;89351.78;;;13.99;62.15
3464;BME280;3551;41.578;24.706;2023-03-11T10:55:33;89358.78;;;13.22;67.54
3464;BME280;3551;41.578;24.706;2023-03-11T10:58:04;89366.72;;;12.89;69.37
3464;BME280;3551;41.578;24.706;2023-03-11T11:00:30;89379.25;;;12.92;71.11
3464;BME280;3551;41.578;24.706;2023-03-11T11:02:57;89393.34;;;12.11;76.25
3464;BME280;3551;41.578;24.706;2023-03-11T11:05:28;89402.28;;;11.68;81.19
3464;BME280;3551;41.578;24.706;2023-03-11T11:08:04;89398.31;;;11.73;81.13
3464;BME280;3551;41.578;24.706;2023-03-11T11:10:31;89386.00;;;11.54;84.11
3464;BME280;3551;41.578;24.706;2023-03-11T11:12:58;89390.41;;;11.69;83.77
3464;BME280;3551;41.578;24.706;2023-03-11T11:15:27;89386.47;;;11.92;83.11
3464;BME280;3551;41.578;24.706;2023-03-11T11:17:55;89389.31;;;12.07;84.57
3464;BME280;3551;41.578;24.706;2023-03-11T11:20:22;89383.38;;;12.12;86.31
3464;BME280;3551;41.578;24.706;2023-03-11T11:22:52;89370.47;;;12.28;84.78
3464;BME280;3551;41.578;24.706;2023-03-11T11:25:23;89363.91;;;12.38;80.20
3464;BME280;3551;41.578;24.706;2023-03-11T11:27:54;89364.50;;;12.43;76.87
3464;BME280;3551;41.578;24.706;2023-03-11T11:30:22;89366.59;;;12.38;78.45
3464;BME280;3551;41.578;24.706;2023-03-11T11:32:49;89363.75;;;12.24;78.45
3464;BME280;3551;41.578;24.706;2023-03-11T11:35:18;89354.06;;;12.45;75.52
3464;BME280;3551;41.578;24.706;2023-03-11T11:37:45;89358.84;;;12.31;77.88
3464;BME280;3551;41.578;24.706;2023-03-11T11:40:20;89352.59;;;12.25;79.32
3464;BME280;3551;41.578;24.706;2023-03-11T11:42:50;89347.66;;;12.15;80.00
3464;BME280;3551;41.578;24.706;2023-03-11T11:45:21;89345.41;;;12.04;79.84
3464;BME280;3551;41.578;24.706;2023-03-11T11:47:51;89341.69;;;12.02;77.42
3464;BME280;3551;41.578;24.706;2023-03-11T11:50:22;89339.16;;;12.07;77.18
3464;BME280;3551;41.578;24.706;2023-03-11T11:52:52;89332.13;;;11.82;77.04
3464;BME280;3551;41.578;24.706;2023-03-11T11:55:23;89340.09;;;11.64;76.65
3464;BME280;3551;41.578;24.706;2023-03-11T11:57:50;89344.53;;;11.58;77.01
3464;BME280;3551;41.578;24.706;2023-03-11T12:00:18;89331.56;;;11.88;76.50
3464;BME280;3551;41.578;24.706;2023-03-11T12:02:51;89333.16;;;11.85;75.80
3464;BME280;3551;41.578;24.706;2023-03-11T12:05:26;89336.16;;;11.87;77.25
3464;BME280;3551;41.578;24.706;2023-03-11T12:07:56;89325.78;;;12.25;76.83
3464;BME280;3551;41.578;24.706;2023-03-11T12:10:30;89332.91;;;12.01;75.85
3464;BME280;3551;41.578;24.706;2023-03-11T12:15:44;89329.66;;;12.24;72.80
3464;BME280;3551;41.578;24.706;2023-03-11T12:18:16;89338.88;;;12.60;71.74
3464;BME280;3551;41.578;24.706;2023-03-11T12:20:48;89340.22;;;12.73;70.80
3464;BME280;3551;41.578;24.706;2023-03-11T12:23:19;89331.72;;;12.84;68.14
3464;BME280;3551;41.578;24.706;2023-03-11T12:26:04;89337.38;;;12.68;69.84
3464;BME280;3551;41.578;24.706;2023-03-11T12:28:39;89332.63;;;12.72;66.02
3464;BME280;3551;41.578;24.706;2023-03-11T12:31:07;89340.31;;;13.06;64.33
3464;BME280;3551;41.578;24.706;2023-03-11T12:33:35;89329.09;;;13.26;66.02
3464;BME280;3551;41.578;24.706;2023-03-11T12:36:02;89327.16;;;13.26;62.15
3464;BME280;3551;41.578;24.706;2023-03-11T12:38:31;89316.00;;;13.28;66.45
3464;BME280;3551;41.578;24.706;2023-03-11T12:41:02;89315.88;;;13.04;67.85
3464;BME280;3551;41.578;24.706;2023-03-11T12:46:16;89316.47;;;12.99;65.97
3464;BME280;3551;41.578;24.706;2023-03-11T12:48:43;89310.53;;;13.13;61.54
3464;BME280;3551;41.578;24.706;2023-03-11T12:53:55;89307.88;;;13.37;54.81
3464;BME280;3551;41.578;24.706;2023-03-11T12:56:25;89305.78;;;13.41;55.75
3464;BME280;3551;41.578;24.706;2023-03-11T12:59:06;89304.47;;;13.36;58.06
3464;BME280;3551;41.578;24.706;2023-03-11T13:01:44;89300.22;;;13.03;64.41
3464;BME280;3551;41.578;24.706;2023-03-11T13:04:21;89303.94;;;13.05;65.04
3464;BME280;3551;41.578;24.706;2023-03-11T13:06:55;89290.22;;;13.21;63.18
3464;BME280;3551;41.578;24.706;2023-03-11T13:09:27;89290.44;;;13.41;62.33
3464;BME280;3551;41.578;24.706;2023-03-11T13:11:54;89293.28;;;13.38;65.47
3464;BME280;3551;41.578;24.706;2023-03-11T13:14:22;89295.31;;;13.43;65.82
3464;BME280;3551;41.578;24.706;2023-03-11T13:16:53;89317.00;;;13.39;66.11
3464;BME280;3551;41.578;24.706;2023-03-11T13:19:36;89335.31;;;13.41;64.79
3464;BME280;3551;41.578;24.706;2023-03-11T13:22:04;89327.56;;;13.34;66.20
3464;BME280;3551;41.578;24.706;2023-03-11T13:24:45;89321.19;;;13.22;65.13
3464;BME280;3551;41.578;24.706;2023-03-11T13:27:16;89330.31;;;13.25;66.33
3464;BME280;3551;41.578;24.706;2023-03-11T13:29:52;89332.75;;;12.95;64.50
3464;BME280;3551;41.578;24.706;2023-03-11T13:32:27;89333.63;;;13.02;66.13
3464;BME280;3551;41.578;24.706;2023-03-11T13:35:00;89344.97;;;12.87;63.79
3464;BME280;3551;41.578;24.706;2023-03-11T13:37:33;89345.84;;;12.84;64.73
3464;BME280;3551;41.578;24.706;2023-03-11T13:40:05;89353.19;;;12.66;67.65
3464;BME280;3551;41.578;24.706;2023-03-11T13:42:41;89351.69;;;12.65;63.61
3464;BME280;3551;41.578;24.706;2023-03-11T13:45:12;89370.03;;;12.48;64.25
3464;BME280;3551;41.578;24.706;2023-03-11T13:47:44;89363.59;;;12.73;65.48
3464;BME280;3551;41.578;24.706;2023-03-11T13:50:16;89354.22;;;12.50;67.60
3464;BME280;3551;41.578;24.706;2023-03-11T13:52:46;89402.59;;;12.10;69.77
3464;BME280;3551;41.578;24.706;2023-03-11T13:55:14;89404.03;;;11.93;70.00
3464;BME280;3551;41.578;24.706;2023-03-11T13:57:48;89423.09;;;11.64;71.22
3464;BME280;3551;41.578;24.706;2023-03-11T14:00:16;89426.16;;;11.54;75.20
3464;BME280;3551;41.578;24.706;2023-03-11T14:02:50;89425.56;;;11.59;75.94
3464;BME280;3551;41.578;24.706;2023-03-11T14:05:21;89420.94;;;11.50;76.71
3464;BME280;3551;41.578;24.706;2023-03-11T14:07:48;89424.06;;;11.49;77.42
3464;BME280;3551;41.578;24.706;2023-03-11T14:10:20;89419.47;;;11.27;78.54
3464;BME280;3551;41.578;24.706;2023-03-11T14:12:47;89411.53;;;11.15;78.58
3464;BME280;3551;41.578;24.706;2023-03-11T14:15:15;89418.31;;;11.07;74.93
3464;BME280;3551;41.578;24.706;2023-03-11T14:17:43;89400.56;;;11.22;74.59
3464;BME280;3551;41.578;24.706;2023-03-11T14:20:14;89410.22;;;11.50;72.84
3464;BME280;3551;41.578;24.706;2023-03-11T14:22:45;89417.03;;;11.42;71.43
3464;BME280;3551;41.578;24.706;2023-03-11T14:25:15;89415.56;;;11.41;73.59
3464;BME280;3551;41.578;24.706;2023-03-11T14:27:44;89419.44;;;11.49;74.00
3464;BME280;3551;41.578;24.706;2023-03-11T14:30:17;89418.88;;;11.54;75.14
3464;BME280;3551;41.578;24.706;2023-03-11T14:32:43;89418.28;;;11.59;75.74
3464;BME280;3551;41.578;24.706;2023-03-11T14:35:22;89415.97;;;11.70;72.38
3464;BME280;3551;41.578;24.706;2023-03-11T14:37:48;89411.00;;;11.81;71.13
3464;BME280;3551;41.578;24.706;2023-03-11T14:40:23;89413.63;;;11.72;70.57
3464;BME280;3551;41.578;24.706;2023-03-11T14:42:51;89413.88;;;11.96;69.09
3464;BME280;3551;41.578;24.706;2023-03-11T14:45:19;89408.53;;;12.05;67.92
3464;BME280;3551;41.578;24.706;2023-03-11T14:47:47;89411.50;;;12.07;66.56
3464;BME280;3551;41.578;24.706;2023-03-11T14:50:16;89408.50;;;11.96;66.27
3464;BME280;3551;41.578;24.706;2023-03-11T14:52:45;89420.81;;;11.84;69.45
3464;BME280;3551;41.578;24.706;2023-03-11T14:55:14;89426.34;;;11.90;71.00
3464;BME280;3551;41.578;24.706;2023-03-11T14:57:43;89430.84;;;12.02;69.50
3464;BME280;3551;41.578;24.706;2023-03-11T15:00:13;89432.78;;;12.02;69.16
3464;BME280;3551;41.578;24.706;2023-03-11T15:02:42;89432.63;;;12.05;68.45
3464;BME280;3551;41.578;24.706;2023-03-11T15:05:12;89440.97;;;12.07;67.93
3464;BME280;3551;41.578;24.706;2023-03-11T15:07:41;89429.97;;;12.14;68.13
3464;BME280;3551;41.578;24.706;2023-03-11T15:10:11;89434.84;;;11.98;69.62
3464;BME280;3551;41.578;24.706;2023-03-11T15:12:39;89441.78;;;11.86;67.42
3464;BME280;3551;41.578;24.706;2023-03-11T15:15:19;89443.00;;;11.94;66.98
3464;BME280;3551;41.578;24.706;2023-03-11T15:17:50;89444.03;;;11.88;68.79
3464;BME280;3551;41.578;24.706;2023-03-11T15:20:24;89449.53;;;11.84;69.58
3464;BME280;3551;41.578;24.706;2023-03-11T15:22:55;89443.13;;;11.81;67.79
3464;BME280;3551;41.578;24.706;2023-03-11T15:25:26;89451.25;;;11.47;72.38
3464;BME280;3551;41.578;24.706;2023-03-11T15:27:53;89450.34;;;11.41;72.19
3464;BME280;3551;41.578;24.706;2023-03-11T15:30:22;89452.03;;;11.26;72.92
3464;BME280;3551;41.578;24.706;2023-03-11T15:32:49;89454.66;;;11.17;73.86
3464;BME280;3551;41.578;24.706;2023-03-11T15:35:16;89463.03;;;11.28;72.93
3464;BME280;3551;41.578;24.706;2023-03-11T15:37:44;89466.28;;;11.23;73.01
3464;BME280;3551;41.578;24.706;2023-03-11T15:40:16;89468.91;;;11.14;71.87
3464;BME280;3551;41.578;24.706;2023-03-11T15:42:45;89465.84;;;11.24;70.39
3464;BME280;3551;41.578;24.706;2023-03-11T15:45:13;89469.94;;;11.16;71.11
3464;BME280;3551;41.578;24.706;2023-03-11T15:47:41;89473.13;;;11.02;72.87
3464;BME280;3551;41.578;24.706;2023-03-11T15:50:15;89483.38;;;11.04;71.32
3464;BME280;3551;41.578;24.706;2023-03-11T15:52:43;89477.09;;;11.19;72.77
3464;BME280;3551;41.578;24.706;2023-03-11T15:55:10;89488.13;;;11.21;73.32
3464;BME280;3551;41.578;24.706;2023-03-11T15:57:37;89483.97;;;11.20;72.37
3464;BME280;3551;41.578;24.706;2023-03-11T16:00:06;89485.38;;;11.34;70.88
3464;BME280;3551;41.578;24.706;2023-03-11T16:02:39;89477.97;;;11.16;73.12
3464;BME280;3551;41.578;24.706;2023-03-11T16:05:10;89480.97;;;11.18;71.84
3464;BME280;3551;41.578;24.706;2023-03-11T16:07:37;89488.16;;;10.87;72.70
3464;BME280;3551;41.578;24.706;2023-03-11T16:10:04;89481.56;;;11.01;74.51
3464;BME280;3551;41.578;24.706;2023-03-11T16:12:31;89491.66;;;10.97;73.05
3464;BME280;3551;41.578;24.706;2023-03-11T16:14:58;89499.56;;;11.00;72.66
3464;BME280;3551;41.578;24.706;2023-03-11T16:17:26;89494.03;;;11.16;69.95
3464;BME280;3551;41.578;24.706;2023-03-11T16:19:53;89496.59;;;11.20;71.01
3464;BME280;3551;41.578;24.706;2023-03-11T16:22:20;89516.88;;;11.08;71.03
3464;BME280;3551;41.578;24.706;2023-03-11T16:24:50;89521.16;;;11.06;71.02
3464;BME280;3551;41.578;24.706;2023-03-11T16:27:17;89513.19;;;11.15;71.93
3464;BME280;3551;41.578;24.706;2023-03-11T16:29:44;89514.56;;;11.19;71.89
3464;BME280;3551;41.578;24.706;2023-03-11T16:32:11;89514.72;;;11.03;73.32
3464;BME280;3551;41.578;24.706;2023-03-11T16:34:39;89520.56;;;10.89;74.26
3464;BME280;3551;41.578;24.706;2023-03-11T16:37:06;89522.94;;;10.87;75.31
3464;BME280;3551;41.578;24.706;2023-03-11T16:39:33;89527.41;;;10.90;75.76
3464;BME280;3551;41.578;24.706;2023-03-11T16:42:00;89541.66;;;10.87;75.93
3464;BME280;3551;41.578;24.706;2023-03-11T16:44:27;89534.72;;;10.77;76.56
3464;BME280;3551;41.578;24.706;2023-03-11T16:46:53;89533.50;;;10.91;75.88
3464;BME280;3551;41.578;24.706;2023-03-11T16:49:20;89540.91;;;10.74;77.02
3464;BME280;3551;41.578;24.706;2023-03-11T16:51:48;89544.75;;;10.86;76.66
3464;BME280;3551;41.578;24.706;2023-03-11T16:54:15;89559.41;;;10.81;74.70
3464;BME280;3551;41.578;24.706;2023-03-11T16:56:42;89560.66;;;10.89;76.03
3464;BME280;3551;41.578;24.706;2023-03-11T16:59:09;89562.06;;;10.94;76.26
3464;BME280;3551;41.578;24.706;2023-03-11T17:01:35;89561.31;;;10.93;76.40
3464;BME280;3551;41.578;24.706;2023-03-11T17:04:04;89570.28;;;10.99;77.42
3464;BME280;3551;41.578;24.706;2023-03-11T17:06:30;89568.09;;;11.07;76.30
3464;BME280;3551;41.578;24.706;2023-03-11T17:08:58;89578.31;;;10.99;76.73
3464;BME280;3551;41.578;24.706;2023-03-11T17:11:25;89581.84;;;10.96;73.92
3464;BME280;3551;41.578;24.706;2023-03-11T17:13:54;89575.31;;;10.97;76.18
3464;BME280;3551;41.578;24.706;2023-03-11T17:16:20;89582.88;;;11.11;76.56
3464;BME280;3551;41.578;24.706;2023-03-11T17:18:47;89589.59;;;11.16;74.73
3464;BME280;3551;41.578;24.706;2023-03-11T17:21:14;89586.34;;;11.21;75.82
3464;BME280;3551;41.578;24.706;2023-03-11T17:23:41;89598.25;;;11.20;76.02
3464;BME280;3551;41.578;24.706;2023-03-11T17:26:10;89597.03;;;10.99;76.52
3464;BME280;3551;41.578;24.706;2023-03-11T17:28:37;89603.31;;;11.05;77.78
3464;BME280;3551;41.578;24.706;2023-03-11T17:31:05;89603.88;;;11.00;77.73
3464;BME280;3551;41.578;24.706;2023-03-11T17:33:32;89612.78;;;10.97;78.03
3464;BME280;3551;41.578;24.706;2023-03-11T17:35:59;89616.25;;;11.07;77.16
3464;BME280;3551;41.578;24.706;2023-03-11T17:38:25;89619.19;;;11.00;77.72
3464;BME280;3551;41.578;24.706;2023-03-11T17:40:53;89622.38;;;10.95;78.47
3464;BME280;3551;41.578;24.706;2023-03-11T17:43:22;89620.38;;;10.86;78.79
3464;BME280;3551;41.578;24.706;2023-03-11T17:45:48;89627.53;;;10.89;79.45
3464;BME280;3551;41.578;24.706;2023-03-11T17:48:15;89620.72;;;10.76;78.85
3464;BME280;3551;41.578;24.706;2023-03-11T17:50:42;89622.31;;;10.86;77.42
3464;BME280;3551;41.578;24.706;2023-03-11T17:53:08;89621.56;;;10.72;79.19
3464;BME280;3551;41.578;24.706;2023-03-11T17:55:37;89632.69;;;10.71;78.67
3464;BME280;3551;41.578;24.706;2023-03-11T17:58:04;89636.34;;;10.52;79.01
3464;BME280;3551;41.578;24.706;2023-03-11T18:00:32;89636.97;;;10.56;79.31
3464;BME280;3551;41.578;24.706;2023-03-11T18:02:59;89645.09;;;10.65;79.92
3464;BME280;3551;41.578;24.706;2023-03-11T18:05:25;89644.25;;;10.55;81.19
3464;BME280;3551;41.578;24.706;2023-03-11T18:07:52;89641.56;;;10.43;80.71
3464;BME280;3551;41.578;24.706;2023-03-11T18:10:19;89647.91;;;9.95;82.98
3464;BME280;3551;41.578;24.706;2023-03-11T18:12:45;89651.69;;;9.81;83.58
3464;BME280;3551;41.578;24.706;2023-03-11T18:15:12;89657.69;;;9.85;83.63
3464;BME280;3551;41.578;24.706;2023-03-11T18:17:45;89667.72;;;9.52;84.84
3464;BME280;3551;41.578;24.706;2023-03-11T18:20:12;89669.63;;;9.52;84.69
3464;BME280;3551;41.578;24.706;2023-03-11T18:22:39;89665.19;;;9.61;83.61
3464;BME280;3551;41.578;24.706;2023-03-11T18:25:06;89668.19;;;9.92;81.37
3464;BME280;3551;41.578;24.706;2023-03-11T18:27:34;89674.47;;;9.86;81.52
3464;BME280;3551;41.578;24.706;2023-03-11T18:30:01;89679.19;;;10.07;81.28
3464;BME280;3551;41.578;24.706;2023-03-11T18:32:27;89691.25;;;10.15;81.09
3464;BME280;3551;41.578;24.706;2023-03-11T18:34:55;89682.63;;;10.07;81.43
3464;BME280;3551;41.578;24.706;2023-03-11T18:37:22;89688.03;;;10.20;79.98
3464;BME280;3551;41.578;24.706;2023-03-11T18:39:49;89689.78;;;9.98;80.85